sensor_id;sensor_type;location;lat;lon;timestamp;P1;durP1;ratioP1;P2;durP2;ratioP2
82176;SDS011;71758;48.714;9.584;2024-03-02T00:00:08;34.95;;;17.65;;
82176;SDS011;71758;48.714;9.584;2024-03-02T00:02:43;35.40;;;18.50;;
82176;SDS011;71758;48.714;9.584;2024-03-02T00:05:12;32.03;;;15.70;;
82176;SDS011;71758;48.714;9.584;2024-03-02T00:07:44;33.63;;;16.00;;
82176;SDS011;71758;48.714;9.584;2024-03-02T00:10:16;35.47;;;17.25;;
82176;SDS011;71758;48.714;9.584;2024-03-02T00:12:46;32.65;;;16.35;;
82176;SDS011;71758;48.714;9.584;2024-03-02T00:18:00;27.25;;;14.35;;
82176;SDS011;71758;48.714;9.584;2024-03-02T00:20:26;27.85;;;14.00;;
82176;SDS011;71758;48.714;9.584;2024-03-02T00:23:00;27.02;;;13.10;;
82176;SDS011;71758;48.714;9.584;2024-03-02T00:25:39;29.48;;;13.65;;
82176;SDS011;71758;48.714;9.584;2024-03-02T00:28:23;24.85;;;13.38;;
82176;SDS011;71758;48.714;9.584;2024-03-02T00:30:57;26.70;;;12.98;;
82176;SDS011;71758;48.714;9.584;2024-03-02T00:33:42;27.67;;;13.80;;
82176;SDS011;71758;48.714;9.584;2024-03-02T00:36:09;31.25;;;15.60;;
82176;SDS011;71758;48.714;9.584;2024-03-02T00:38:45;28.90;;;15.00;;
82176;SDS011;71758;48.714;9.584;2024-03-02T00:41:15;32.80;;;15.75;;
82176;SDS011;71758;48.714;9.584;2024-03-02T00:43:43;32.15;;;13.88;;
82176;SDS011;71758;48.714;9.584;2024-03-02T00:46:11;26.65;;;13.23;;
82176;SDS011;71758;48.714;9.584;2024-03-02T00:48:38;26.77;;;12.48;;
82176;SDS011;71758;48.714;9.584;2024-03-02T00:51:04;26.38;;;12.35;;
82176;SDS011;71758;48.714;9.584;2024-03-02T00:53:30;24.02;;;11.30;;
82176;SDS011;71758;48.714;9.584;2024-03-02T00:55:57;22.45;;;10.85;;
82176;SDS011;71758;48.714;9.584;2024-03-02T00:58:24;24.67;;;11.60;;
82176;SDS011;71758;48.714;9.584;2024-03-02T01:00:49;25.90;;;13.10;;
82176;SDS011;71758;48.714;9.584;2024-03-02T01:03:15;23.98;;;11.65;;
82176;SDS011;71758;48.714;9.584;2024-03-02T01:05:43;24.65;;;12.95;;
82176;SDS011;71758;48.714;9.584;2024-03-02T01:08:09;25.40;;;13.05;;
82176;SDS011;71758;48.714;9.584;2024-03-02T01:10:35;24.55;;;12.90;;
82176;SDS011;71758;48.714;9.584;2024-03-02T01:13:00;25.75;;;13.15;;
82176;SDS011;71758;48.714;9.584;2024-03-02T01:15:26;24.77;;;11.27;;
82176;SDS011;71758;48.714;9.584;2024-03-02T01:17:51;25.40;;;12.68;;
82176;SDS011;71758;48.714;9.584;2024-03-02T01:20:17;24.38;;;12.85;;
82176;SDS011;71758;48.714;9.584;2024-03-02T01:22:42;26.85;;;12.45;;
82176;SDS011;71758;48.714;9.584;2024-03-02T01:25:08;27.05;;;12.32;;
82176;SDS011;71758;48.714;9.584;2024-03-02T01:27:34;26.65;;;13.50;;
82176;SDS011;71758;48.714;9.584;2024-03-02T01:29:59;29.13;;;13.45;;
82176;SDS011;71758;48.714;9.584;2024-03-02T01:32:25;25.55;;;13.32;;
82176;SDS011;71758;48.714;9.584;2024-03-02T01:34:50;26.52;;;13.60;;
82176;SDS011;71758;48.714;9.584;2024-03-02T01:37:16;25.02;;;13.07;;
82176;SDS011;71758;48.714;9.584;2024-03-02T01:39:41;25.25;;;13.60;;
82176;SDS011;71758;48.714;9.584;2024-03-02T01:42:06;26.35;;;13.10;;
82176;SDS011;71758;48.714;9.584;2024-03-02T01:44:32;27.33;;;12.93;;
82176;SDS011;71758;48.714;9.584;2024-03-02T01:46:57;26.20;;;12.00;;
82176;SDS011;71758;48.714;9.584;2024-03-02T01:49:23;24.80;;;11.65;;
82176;SDS011;71758;48.714;9.584;2024-03-02T01:51:48;20.83;;;11.73;;
82176;SDS011;71758;48.714;9.584;2024-03-02T01:54:13;23.20;;;11.40;;
82176;SDS011;71758;48.714;9.584;2024-03-02T01:56:39;25.20;;;12.65;;
82176;SDS011;71758;48.714;9.584;2024-03-02T01:59:04;23.30;;;12.30;;
82176;SDS011;71758;48.714;9.584;2024-03-02T02:01:30;28.48;;;13.82;;
82176;SDS011;71758;48.714;9.584;2024-03-02T02:03:56;28.58;;;13.63;;
82176;SDS011;71758;48.714;9.584;2024-03-02T02:06:21;27.50;;;13.23;;
82176;SDS011;71758;48.714;9.584;2024-03-02T02:08:47;27.45;;;14.07;;
82176;SDS011;71758;48.714;9.584;2024-03-02T02:11:14;26.80;;;13.80;;
82176;SDS011;71758;48.714;9.584;2024-03-02T02:13:40;23.70;;;12.75;;
82176;SDS011;71758;48.714;9.584;2024-03-02T02:16:06;25.17;;;12.48;;
82176;SDS011;71758;48.714;9.584;2024-03-02T02:18:32;25.45;;;13.32;;
82176;SDS011;71758;48.714;9.584;2024-03-02T02:20:58;25.35;;;12.98;;
82176;SDS011;71758;48.714;9.584;2024-03-02T02:23:23;27.42;;;13.50;;
82176;SDS011;71758;48.714;9.584;2024-03-02T02:25:48;27.45;;;14.43;;
82176;SDS011;71758;48.714;9.584;2024-03-02T02:28:14;29.85;;;14.85;;
82176;SDS011;71758;48.714;9.584;2024-03-02T02:30:39;27.88;;;14.63;;
82176;SDS011;71758;48.714;9.584;2024-03-02T02:33:04;30.88;;;14.52;;
82176;SDS011;71758;48.714;9.584;2024-03-02T02:35:30;29.88;;;14.57;;
82176;SDS011;71758;48.714;9.584;2024-03-02T02:37:55;25.63;;;13.48;;
82176;SDS011;71758;48.714;9.584;2024-03-02T02:40:22;30.10;;;14.52;;
82176;SDS011;71758;48.714;9.584;2024-03-02T02:42:47;22.65;;;11.90;;
82176;SDS011;71758;48.714;9.584;2024-03-02T02:45:13;25.38;;;12.82;;
82176;SDS011;71758;48.714;9.584;2024-03-02T02:47:43;24.58;;;12.45;;
82176;SDS011;71758;48.714;9.584;2024-03-02T02:50:10;24.63;;;12.90;;
82176;SDS011;71758;48.714;9.584;2024-03-02T02:52:36;24.00;;;12.95;;
82176;SDS011;71758;48.714;9.584;2024-03-02T02:55:04;27.40;;;13.27;;
82176;SDS011;71758;48.714;9.584;2024-03-02T02:57:31;29.27;;;14.45;;
82176;SDS011;71758;48.714;9.584;2024-03-02T03:00:00;31.75;;;15.05;;
82176;SDS011;71758;48.714;9.584;2024-03-02T03:02:30;33.05;;;16.23;;
82176;SDS011;71758;48.714;9.584;2024-03-02T03:04:56;32.65;;;16.02;;
82176;SDS011;71758;48.714;9.584;2024-03-02T03:07:22;31.73;;;15.40;;
82176;SDS011;71758;48.714;9.584;2024-03-02T03:09:48;29.17;;;14.38;;
82176;SDS011;71758;48.714;9.584;2024-03-02T03:12:13;30.45;;;15.75;;
82176;SDS011;71758;48.714;9.584;2024-03-02T03:14:40;30.55;;;14.98;;
82176;SDS011;71758;48.714;9.584;2024-03-02T03:17:06;26.65;;;13.75;;
82176;SDS011;71758;48.714;9.584;2024-03-02T03:19:33;27.13;;;13.65;;
82176;SDS011;71758;48.714;9.584;2024-03-02T03:21:58;27.42;;;13.75;;
82176;SDS011;71758;48.714;9.584;2024-03-02T03:24:24;27.63;;;13.73;;
82176;SDS011;71758;48.714;9.584;2024-03-02T03:26:49;25.70;;;13.05;;
82176;SDS011;71758;48.714;9.584;2024-03-02T03:29:14;28.77;;;13.75;;
82176;SDS011;71758;48.714;9.584;2024-03-02T03:31:40;29.02;;;13.93;;
82176;SDS011;71758;48.714;9.584;2024-03-02T03:34:05;26.38;;;14.07;;
82176;SDS011;71758;48.714;9.584;2024-03-02T03:36:30;26.60;;;13.70;;
82176;SDS011;71758;48.714;9.584;2024-03-02T03:38:56;25.98;;;13.07;;
82176;SDS011;71758;48.714;9.584;2024-03-02T03:41:22;27.15;;;13.73;;
82176;SDS011;71758;48.714;9.584;2024-03-02T03:43:48;28.55;;;13.80;;
82176;SDS011;71758;48.714;9.584;2024-03-02T03:46:13;25.95;;;13.65;;
82176;SDS011;71758;48.714;9.584;2024-03-02T03:48:38;27.58;;;14.18;;
82176;SDS011;71758;48.714;9.584;2024-03-02T03:51:04;29.17;;;14.05;;
82176;SDS011;71758;48.714;9.584;2024-03-02T03:53:29;26.20;;;13.70;;
82176;SDS011;71758;48.714;9.584;2024-03-02T03:55:54;28.00;;;14.43;;
82176;SDS011;71758;48.714;9.584;2024-03-02T03:58:20;27.55;;;13.50;;
82176;SDS011;71758;48.714;9.584;2024-03-02T04:00:46;31.55;;;14.60;;
82176;SDS011;71758;48.714;9.584;2024-03-02T04:03:11;29.05;;;14.35;;
82176;SDS011;71758;48.714;9.584;2024-03-02T04:05:37;30.38;;;14.80;;
82176;SDS011;71758;48.714;9.584;2024-03-02T04:08:03;26.60;;;13.63;;
82176;SDS011;71758;48.714;9.584;2024-03-02T04:10:29;26.38;;;13.77;;
82176;SDS011;71758;48.714;9.584;2024-03-02T04:12:55;28.40;;;12.98;;
82176;SDS011;71758;48.714;9.584;2024-03-02T04:15:20;27.63;;;14.38;;
82176;SDS011;71758;48.714;9.584;2024-03-02T04:17:48;26.27;;;12.95;;
82176;SDS011;71758;48.714;9.584;2024-03-02T04:20:13;26.52;;;13.52;;
82176;SDS011;71758;48.714;9.584;2024-03-02T04:22:39;22.88;;;11.95;;
82176;SDS011;71758;48.714;9.584;2024-03-02T04:25:04;28.55;;;12.77;;
82176;SDS011;71758;48.714;9.584;2024-03-02T04:27:30;27.38;;;14.50;;
82176;SDS011;71758;48.714;9.584;2024-03-02T04:29:57;28.02;;;13.63;;
82176;SDS011;71758;48.714;9.584;2024-03-02T04:32:22;23.58;;;12.35;;
82176;SDS011;71758;48.714;9.584;2024-03-02T04:34:48;29.35;;;13.00;;
82176;SDS011;71758;48.714;9.584;2024-03-02T04:37:13;27.50;;;12.80;;
82176;SDS011;71758;48.714;9.584;2024-03-02T04:39:39;26.73;;;12.93;;
82176;SDS011;71758;48.714;9.584;2024-03-02T04:42:05;25.52;;;12.77;;
82176;SDS011;71758;48.714;9.584;2024-03-02T04:44:30;28.13;;;13.85;;
82176;SDS011;71758;48.714;9.584;2024-03-02T04:46:55;27.38;;;12.63;;
82176;SDS011;71758;48.714;9.584;2024-03-02T04:49:21;25.88;;;13.32;;
82176;SDS011;71758;48.714;9.584;2024-03-02T04:51:46;25.73;;;13.30;;
82176;SDS011;71758;48.714;9.584;2024-03-02T04:54:12;27.30;;;12.60;;
82176;SDS011;71758;48.714;9.584;2024-03-02T04:56:39;25.23;;;12.63;;
82176;SDS011;71758;48.714;9.584;2024-03-02T04:59:04;27.23;;;13.73;;
82176;SDS011;71758;48.714;9.584;2024-03-02T05:01:29;26.02;;;13.48;;
82176;SDS011;71758;48.714;9.584;2024-03-02T05:03:55;25.10;;;13.10;;
82176;SDS011;71758;48.714;9.584;2024-03-02T05:06:21;25.10;;;12.32;;
82176;SDS011;71758;48.714;9.584;2024-03-02T05:08:47;24.20;;;12.25;;
82176;SDS011;71758;48.714;9.584;2024-03-02T05:11:13;25.58;;;13.18;;
82176;SDS011;71758;48.714;9.584;2024-03-02T05:14:16;24.83;;;12.55;;
82176;SDS011;71758;48.714;9.584;2024-03-02T05:16:42;28.15;;;12.65;;
82176;SDS011;71758;48.714;9.584;2024-03-02T05:19:07;26.77;;;12.48;;
82176;SDS011;71758;48.714;9.584;2024-03-02T05:21:33;30.38;;;13.73;;
82176;SDS011;71758;48.714;9.584;2024-03-02T05:23:59;25.70;;;13.10;;
82176;SDS011;71758;48.714;9.584;2024-03-02T05:26:24;27.35;;;12.57;;
82176;SDS011;71758;48.714;9.584;2024-03-02T05:28:50;30.63;;;13.93;;
82176;SDS011;71758;48.714;9.584;2024-03-02T05:31:15;26.73;;;14.27;;
82176;SDS011;71758;48.714;9.584;2024-03-02T05:33:41;27.48;;;12.30;;
82176;SDS011;71758;48.714;9.584;2024-03-02T05:36:07;29.15;;;13.50;;
82176;SDS011;71758;48.714;9.584;2024-03-02T05:38:34;26.23;;;12.48;;
82176;SDS011;71758;48.714;9.584;2024-03-02T05:41:00;27.73;;;12.68;;
82176;SDS011;71758;48.714;9.584;2024-03-02T05:43:25;28.15;;;13.73;;
82176;SDS011;71758;48.714;9.584;2024-03-02T05:45:51;26.77;;;13.02;;
82176;SDS011;71758;48.714;9.584;2024-03-02T05:48:16;26.42;;;13.70;;
82176;SDS011;71758;48.714;9.584;2024-03-02T05:50:41;25.98;;;12.93;;
82176;SDS011;71758;48.714;9.584;2024-03-02T05:53:07;24.52;;;12.73;;
82176;SDS011;71758;48.714;9.584;2024-03-02T05:55:32;27.88;;;13.75;;
82176;SDS011;71758;48.714;9.584;2024-03-02T05:57:58;26.55;;;13.00;;
82176;SDS011;71758;48.714;9.584;2024-03-02T06:00:23;27.33;;;12.23;;
82176;SDS011;71758;48.714;9.584;2024-03-02T06:02:48;30.55;;;12.60;;
82176;SDS011;71758;48.714;9.584;2024-03-02T06:05:14;26.25;;;12.32;;
82176;SDS011;71758;48.714;9.584;2024-03-02T06:07:40;25.95;;;12.82;;
82176;SDS011;71758;48.714;9.584;2024-03-02T06:10:06;25.90;;;12.75;;
82176;SDS011;71758;48.714;9.584;2024-03-02T06:12:33;25.65;;;12.85;;
82176;SDS011;71758;48.714;9.584;2024-03-02T06:14:59;28.40;;;12.57;;
82176;SDS011;71758;48.714;9.584;2024-03-02T06:17:24;27.58;;;13.95;;
82176;SDS011;71758;48.714;9.584;2024-03-02T06:19:50;26.75;;;12.80;;
82176;SDS011;71758;48.714;9.584;2024-03-02T06:22:15;26.15;;;12.88;;
82176;SDS011;71758;48.714;9.584;2024-03-02T06:24:41;26.05;;;13.18;;
82176;SDS011;71758;48.714;9.584;2024-03-02T06:27:06;27.23;;;13.02;;
82176;SDS011;71758;48.714;9.584;2024-03-02T06:29:34;28.92;;;13.43;;
82176;SDS011;71758;48.714;9.584;2024-03-02T06:32:00;30.15;;;14.73;;
82176;SDS011;71758;48.714;9.584;2024-03-02T06:34:25;28.77;;;13.35;;
82176;SDS011;71758;48.714;9.584;2024-03-02T06:36:51;28.60;;;14.32;;
82176;SDS011;71758;48.714;9.584;2024-03-02T06:39:16;29.55;;;14.32;;
82176;SDS011;71758;48.714;9.584;2024-03-02T06:41:42;29.33;;;13.55;;
82176;SDS011;71758;48.714;9.584;2024-03-02T06:44:08;30.23;;;13.50;;
82176;SDS011;71758;48.714;9.584;2024-03-02T06:46:33;28.05;;;13.68;;
82176;SDS011;71758;48.714;9.584;2024-03-02T06:48:58;35.00;;;15.52;;
82176;SDS011;71758;48.714;9.584;2024-03-02T06:51:24;36.38;;;16.77;;
82176;SDS011;71758;48.714;9.584;2024-03-02T06:53:49;31.60;;;15.45;;
82176;SDS011;71758;48.714;9.584;2024-03-02T06:56:15;31.48;;;14.98;;
82176;SDS011;71758;48.714;9.584;2024-03-02T06:58:40;31.77;;;15.35;;
82176;SDS011;71758;48.714;9.584;2024-03-02T07:01:06;37.63;;;17.55;;
82176;SDS011;71758;48.714;9.584;2024-03-02T07:03:31;31.77;;;16.15;;
82176;SDS011;71758;48.714;9.584;2024-03-02T07:05:57;36.92;;;16.77;;
82176;SDS011;71758;48.714;9.584;2024-03-02T07:08:23;27.92;;;14.52;;
82176;SDS011;71758;48.714;9.584;2024-03-02T07:10:48;29.13;;;14.27;;
82176;SDS011;71758;48.714;9.584;2024-03-02T07:13:14;30.98;;;13.15;;
82176;SDS011;71758;48.714;9.584;2024-03-02T07:15:39;28.75;;;13.82;;
82176;SDS011;71758;48.714;9.584;2024-03-02T07:18:23;28.25;;;15.02;;
82176;SDS011;71758;48.714;9.584;2024-03-02T07:20:49;32.92;;;14.63;;
82176;SDS011;71758;48.714;9.584;2024-03-02T07:23:14;28.48;;;14.52;;
82176;SDS011;71758;48.714;9.584;2024-03-02T07:25:40;26.52;;;14.07;;
82176;SDS011;71758;48.714;9.584;2024-03-02T07:28:05;32.45;;;15.40;;
82176;SDS011;71758;48.714;9.584;2024-03-02T07:30:32;31.98;;;16.95;;
82176;SDS011;71758;48.714;9.584;2024-03-02T07:32:57;34.92;;;17.08;;
82176;SDS011;71758;48.714;9.584;2024-03-02T07:35:23;38.47;;;19.75;;
82176;SDS011;71758;48.714;9.584;2024-03-02T07:37:52;44.65;;;23.10;;
82176;SDS011;71758;48.714;9.584;2024-03-02T07:40:18;40.05;;;20.33;;
82176;SDS011;71758;48.714;9.584;2024-03-02T07:42:43;41.00;;;21.58;;
82176;SDS011;71758;48.714;9.584;2024-03-02T07:45:09;34.42;;;16.83;;
82176;SDS011;71758;48.714;9.584;2024-03-02T07:47:34;36.65;;;16.85;;
82176;SDS011;71758;48.714;9.584;2024-03-02T07:50:00;46.25;;;21.35;;
82176;SDS011;71758;48.714;9.584;2024-03-02T07:52:25;38.20;;;18.52;;
82176;SDS011;71758;48.714;9.584;2024-03-02T07:54:51;31.50;;;15.73;;
82176;SDS011;71758;48.714;9.584;2024-03-02T07:57:16;29.50;;;14.98;;
82176;SDS011;71758;48.714;9.584;2024-03-02T07:59:42;29.77;;;14.75;;
82176;SDS011;71758;48.714;9.584;2024-03-02T08:02:08;26.67;;;14.10;;
82176;SDS011;71758;48.714;9.584;2024-03-02T08:04:33;29.20;;;14.82;;
82176;SDS011;71758;48.714;9.584;2024-03-02T08:06:59;29.15;;;14.60;;
82176;SDS011;71758;48.714;9.584;2024-03-02T08:09:24;31.27;;;15.57;;
82176;SDS011;71758;48.714;9.584;2024-03-02T08:11:51;32.25;;;15.32;;
82176;SDS011;71758;48.714;9.584;2024-03-02T08:14:16;26.08;;;13.27;;
82176;SDS011;71758;48.714;9.584;2024-03-02T08:16:41;26.65;;;13.93;;
82176;SDS011;71758;48.714;9.584;2024-03-02T08:19:07;22.48;;;11.50;;
82176;SDS011;71758;48.714;9.584;2024-03-02T08:21:33;21.20;;;11.57;;
82176;SDS011;71758;48.714;9.584;2024-03-02T08:24:00;24.60;;;11.13;;
82176;SDS011;71758;48.714;9.584;2024-03-02T08:26:27;24.00;;;12.05;;
82176;SDS011;71758;48.714;9.584;2024-03-02T08:28:54;24.40;;;13.10;;
82176;SDS011;71758;48.714;9.584;2024-03-02T08:31:20;25.02;;;12.70;;
82176;SDS011;71758;48.714;9.584;2024-03-02T08:33:45;22.13;;;11.32;;
82176;SDS011;71758;48.714;9.584;2024-03-02T08:36:11;20.33;;;11.10;;
82176;SDS011;71758;48.714;9.584;2024-03-02T08:38:36;20.98;;;10.25;;
82176;SDS011;71758;48.714;9.584;2024-03-02T08:41:02;20.83;;;11.25;;
82176;SDS011;71758;48.714;9.584;2024-03-02T08:43:28;18.63;;;10.80;;
82176;SDS011;71758;48.714;9.584;2024-03-02T08:45:54;18.98;;;10.25;;
82176;SDS011;71758;48.714;9.584;2024-03-02T08:48:19;18.98;;;10.82;;
82176;SDS011;71758;48.714;9.584;2024-03-02T08:50:46;25.75;;;11.75;;
82176;SDS011;71758;48.714;9.584;2024-03-02T08:53:11;27.65;;;10.65;;
82176;SDS011;71758;48.714;9.584;2024-03-02T08:55:36;15.00;;;8.25;;
82176;SDS011;71758;48.714;9.584;2024-03-02T08:58:02;17.75;;;8.20;;
82176;SDS011;71758;48.714;9.584;2024-03-02T09:00:28;16.40;;;7.88;;
82176;SDS011;71758;48.714;9.584;2024-03-02T09:02:53;10.05;;;4.20;;
82176;SDS011;71758;48.714;9.584;2024-03-02T09:05:19;9.93;;;5.63;;
82176;SDS011;71758;48.714;9.584;2024-03-02T09:07:44;12.45;;;5.07;;
82176;SDS011;71758;48.714;9.584;2024-03-02T09:10:10;9.88;;;5.10;;
82176;SDS011;71758;48.714;9.584;2024-03-02T09:12:35;11.00;;;6.00;;
82176;SDS011;71758;48.714;9.584;2024-03-02T09:15:01;9.63;;;5.38;;
82176;SDS011;71758;48.714;9.584;2024-03-02T09:17:27;9.50;;;4.60;;
82176;SDS011;71758;48.714;9.584;2024-03-02T09:19:53;7.68;;;4.00;;
82176;SDS011;71758;48.714;9.584;2024-03-02T09:22:19;9.05;;;4.45;;
82176;SDS011;71758;48.714;9.584;2024-03-02T09:24:44;8.38;;;4.72;;
82176;SDS011;71758;48.714;9.584;2024-03-02T09:27:10;9.93;;;4.85;;
82176;SDS011;71758;48.714;9.584;2024-03-02T09:29:35;8.98;;;5.20;;
82176;SDS011;71758;48.714;9.584;2024-03-02T09:32:01;9.32;;;5.07;;
82176;SDS011;71758;48.714;9.584;2024-03-02T09:34:27;9.10;;;4.70;;
82176;SDS011;71758;48.714;9.584;2024-03-02T09:36:52;8.40;;;4.50;;
82176;SDS011;71758;48.714;9.584;2024-03-02T09:39:17;8.35;;;4.68;;
82176;SDS011;71758;48.714;9.584;2024-03-02T09:41:43;8.90;;;4.80;;
82176;SDS011;71758;48.714;9.584;2024-03-02T09:44:09;8.15;;;4.55;;
82176;SDS011;71758;48.714;9.584;2024-03-02T09:46:34;8.00;;;4.38;;
82176;SDS011;71758;48.714;9.584;2024-03-02T09:49:01;11.45;;;4.80;;
82176;SDS011;71758;48.714;9.584;2024-03-02T09:51:27;9.50;;;4.40;;
82176;SDS011;71758;48.714;9.584;2024-03-02T09:53:52;11.50;;;4.45;;
82176;SDS011;71758;48.714;9.584;2024-03-02T09:56:19;7.30;;;4.28;;
82176;SDS011;71758;48.714;9.584;2024-03-02T09:58:46;8.02;;;4.38;;
82176;SDS011;71758;48.714;9.584;2024-03-02T10:01:11;11.63;;;3.90;;
82176;SDS011;71758;48.714;9.584;2024-03-02T10:03:37;7.53;;;4.35;;
82176;SDS011;71758;48.714;9.584;2024-03-02T10:06:21;7.28;;;3.97;;
82176;SDS011;71758;48.714;9.584;2024-03-02T10:08:47;7.75;;;4.00;;
82176;SDS011;71758;48.714;9.584;2024-03-02T10:11:25;8.38;;;4.38;;
82176;SDS011;71758;48.714;9.584;2024-03-02T10:13:59;6.55;;;3.50;;
82176;SDS011;71758;48.714;9.584;2024-03-02T10:16:29;8.30;;;3.67;;
82176;SDS011;71758;48.714;9.584;2024-03-02T10:18:54;5.93;;;3.30;;
82176;SDS011;71758;48.714;9.584;2024-03-02T10:21:20;8.75;;;4.20;;
82176;SDS011;71758;48.714;9.584;2024-03-02T10:23:45;6.15;;;3.20;;
82176;SDS011;71758;48.714;9.584;2024-03-02T10:26:17;5.32;;;2.72;;
82176;SDS011;71758;48.714;9.584;2024-03-02T10:28:46;5.35;;;2.75;;
82176;SDS011;71758;48.714;9.584;2024-03-02T10:31:23;6.35;;;3.53;;
82176;SDS011;71758;48.714;9.584;2024-03-02T10:33:52;7.13;;;3.58;;
82176;SDS011;71758;48.714;9.584;2024-03-02T10:36:22;7.65;;;3.65;;
82176;SDS011;71758;48.714;9.584;2024-03-02T10:38:48;6.53;;;3.38;;
82176;SDS011;71758;48.714;9.584;2024-03-02T10:41:20;5.72;;;2.65;;
82176;SDS011;71758;48.714;9.584;2024-03-02T10:43:48;6.18;;;2.33;;
82176;SDS011;71758;48.714;9.584;2024-03-02T10:46:16;5.82;;;3.03;;
82176;SDS011;71758;48.714;9.584;2024-03-02T10:48:44;6.95;;;3.13;;
82176;SDS011;71758;48.714;9.584;2024-03-02T10:51:11;5.80;;;3.00;;
82176;SDS011;71758;48.714;9.584;2024-03-02T10:53:37;4.95;;;2.45;;
82176;SDS011;71758;48.714;9.584;2024-03-02T10:56:02;4.50;;;2.15;;
82176;SDS011;71758;48.714;9.584;2024-03-02T10:58:32;6.05;;;2.92;;
82176;SDS011;71758;48.714;9.584;2024-03-02T11:01:00;6.53;;;3.10;;
82176;SDS011;71758;48.714;9.584;2024-03-02T11:03:29;6.00;;;3.00;;
82176;SDS011;71758;48.714;9.584;2024-03-02T11:05:55;8.13;;;3.60;;
82176;SDS011;71758;48.714;9.584;2024-03-02T11:08:22;6.72;;;3.70;;
82176;SDS011;71758;48.714;9.584;2024-03-02T11:10:50;7.22;;;3.70;;
82176;SDS011;71758;48.714;9.584;2024-03-02T11:13:19;7.53;;;3.78;;
82176;SDS011;71758;48.714;9.584;2024-03-02T11:15:52;8.43;;;3.63;;
82176;SDS011;71758;48.714;9.584;2024-03-02T11:18:20;6.97;;;3.78;;
82176;SDS011;71758;48.714;9.584;2024-03-02T11:20:47;7.28;;;3.90;;
82176;SDS011;71758;48.714;9.584;2024-03-02T11:23:12;6.63;;;3.38;;
82176;SDS011;71758;48.714;9.584;2024-03-02T11:25:39;6.40;;;3.03;;
82176;SDS011;71758;48.714;9.584;2024-03-02T11:28:07;7.80;;;3.53;;
82176;SDS011;71758;48.714;9.584;2024-03-02T11:35:41;5.10;;;2.90;;
82176;SDS011;71758;48.714;9.584;2024-03-02T11:38:13;5.65;;;3.03;;
82176;SDS011;71758;48.714;9.584;2024-03-02T11:40:39;7.07;;;3.65;;
82176;SDS011;71758;48.714;9.584;2024-03-02T11:43:07;6.22;;;3.25;;
82176;SDS011;71758;48.714;9.584;2024-03-02T11:47:59;3.55;;;1.50;;
82176;SDS011;71758;48.714;9.584;2024-03-02T11:50:35;4.38;;;1.98;;
82176;SDS011;71758;48.714;9.584;2024-03-02T11:53:07;3.47;;;1.50;;
82176;SDS011;71758;48.714;9.584;2024-03-02T11:55:37;3.83;;;1.30;;
82176;SDS011;71758;48.714;9.584;2024-03-02T11:58:04;3.15;;;1.30;;
82176;SDS011;71758;48.714;9.584;2024-03-02T12:00:30;4.20;;;1.13;;
82176;SDS011;71758;48.714;9.584;2024-03-02T12:02:59;3.58;;;1.15;;
82176;SDS011;71758;48.714;9.584;2024-03-02T12:05:26;4.10;;;1.50;;
82176;SDS011;71758;48.714;9.584;2024-03-02T12:07:59;3.58;;;1.60;;
82176;SDS011;71758;48.714;9.584;2024-03-02T12:10:26;5.82;;;1.48;;
82176;SDS011;71758;48.714;9.584;2024-03-02T12:13:10;4.03;;;1.58;;
82176;SDS011;71758;48.714;9.584;2024-03-02T12:15:37;4.25;;;1.67;;
82176;SDS011;71758;48.714;9.584;2024-03-02T12:18:03;3.67;;;1.33;;
82176;SDS011;71758;48.714;9.584;2024-03-02T12:20:31;4.35;;;1.63;;
82176;SDS011;71758;48.714;9.584;2024-03-02T12:23:00;3.17;;;1.30;;
82176;SDS011;71758;48.714;9.584;2024-03-02T12:25:27;3.58;;;1.25;;
82176;SDS011;71758;48.714;9.584;2024-03-02T12:27:54;3.38;;;1.30;;
82176;SDS011;71758;48.714;9.584;2024-03-02T12:30:21;3.67;;;1.30;;
82176;SDS011;71758;48.714;9.584;2024-03-02T12:32:47;3.58;;;1.33;;
82176;SDS011;71758;48.714;9.584;2024-03-02T12:35:13;4.18;;;1.10;;
82176;SDS011;71758;48.714;9.584;2024-03-02T12:37:48;5.43;;;1.42;;
82176;SDS011;71758;48.714;9.584;2024-03-02T12:40:14;3.40;;;1.20;;
82176;SDS011;71758;48.714;9.584;2024-03-02T12:45:08;2.70;;;1.00;;
82176;SDS011;71758;48.714;9.584;2024-03-02T12:47:34;2.22;;;0.80;;
82176;SDS011;71758;48.714;9.584;2024-03-02T12:50:00;2.33;;;0.80;;
82176;SDS011;71758;48.714;9.584;2024-03-02T12:52:26;3.03;;;0.98;;
82176;SDS011;71758;48.714;9.584;2024-03-02T12:54:52;3.08;;;1.10;;
82176;SDS011;71758;48.714;9.584;2024-03-02T12:57:22;2.92;;;1.00;;
82176;SDS011;71758;48.714;9.584;2024-03-02T12:59:50;2.78;;;0.93;;
82176;SDS011;71758;48.714;9.584;2024-03-02T13:02:19;2.67;;;0.85;;
82176;SDS011;71758;48.714;9.584;2024-03-02T13:04:51;3.30;;;1.10;;
82176;SDS011;71758;48.714;9.584;2024-03-02T13:07:17;3.40;;;1.00;;
82176;SDS011;71758;48.714;9.584;2024-03-02T13:09:44;3.05;;;0.90;;
82176;SDS011;71758;48.714;9.584;2024-03-02T13:12:11;2.97;;;1.10;;
82176;SDS011;71758;48.714;9.584;2024-03-02T13:14:36;2.72;;;1.00;;
82176;SDS011;71758;48.714;9.584;2024-03-02T13:17:02;3.05;;;1.10;;
82176;SDS011;71758;48.714;9.584;2024-03-02T13:19:30;3.42;;;0.90;;
82176;SDS011;71758;48.714;9.584;2024-03-02T13:21:56;4.30;;;0.90;;
82176;SDS011;71758;48.714;9.584;2024-03-02T13:24:22;2.90;;;0.82;;
82176;SDS011;71758;48.714;9.584;2024-03-02T13:26:50;2.85;;;1.00;;
82176;SDS011;71758;48.714;9.584;2024-03-02T13:29:20;3.13;;;0.60;;
82176;SDS011;71758;48.714;9.584;2024-03-02T13:31:46;2.80;;;0.90;;
82176;SDS011;71758;48.714;9.584;2024-03-02T13:34:11;2.90;;;1.10;;
82176;SDS011;71758;48.714;9.584;2024-03-02T13:36:37;3.08;;;1.00;;
82176;SDS011;71758;48.714;9.584;2024-03-02T13:39:03;2.90;;;1.00;;
82176;SDS011;71758;48.714;9.584;2024-03-02T13:41:30;3.28;;;1.00;;
82176;SDS011;71758;48.714;9.584;2024-03-02T13:43:56;3.05;;;1.15;;
82176;SDS011;71758;48.714;9.584;2024-03-02T13:46:22;3.53;;;1.13;;
82176;SDS011;71758;48.714;9.584;2024-03-02T13:48:47;3.30;;;1.17;;
82176;SDS011;71758;48.714;9.584;2024-03-02T13:51:12;3.08;;;0.90;;
82176;SDS011;71758;48.714;9.584;2024-03-02T13:53:38;3.65;;;1.05;;
82176;SDS011;71758;48.714;9.584;2024-03-02T13:56:03;2.70;;;0.93;;
82176;SDS011;71758;48.714;9.584;2024-03-02T13:58:29;4.47;;;1.13;;
82176;SDS011;71758;48.714;9.584;2024-03-02T14:00:55;3.55;;;0.90;;
82176;SDS011;71758;48.714;9.584;2024-03-02T14:03:21;2.85;;;0.90;;
82176;SDS011;71758;48.714;9.584;2024-03-02T14:05:47;3.22;;;0.90;;
82176;SDS011;71758;48.714;9.584;2024-03-02T14:08:13;2.90;;;1.08;;
82176;SDS011;71758;48.714;9.584;2024-03-02T14:10:39;4.30;;;1.10;;
82176;SDS011;71758;48.714;9.584;2024-03-02T14:13:04;3.05;;;1.20;;
82176;SDS011;71758;48.714;9.584;2024-03-02T14:15:30;6.88;;;2.10;;
82176;SDS011;71758;48.714;9.584;2024-03-02T14:17:56;5.00;;;1.00;;
82176;SDS011;71758;48.714;9.584;2024-03-02T14:20:21;3.33;;;1.15;;
82176;SDS011;71758;48.714;9.584;2024-03-02T14:22:48;3.30;;;1.10;;
82176;SDS011;71758;48.714;9.584;2024-03-02T14:25:14;2.75;;;1.00;;
82176;SDS011;71758;48.714;9.584;2024-03-02T14:27:39;3.83;;;1.10;;
82176;SDS011;71758;48.714;9.584;2024-03-02T14:30:05;4.50;;;1.23;;
82176;SDS011;71758;48.714;9.584;2024-03-02T14:32:31;3.28;;;1.08;;
82176;SDS011;71758;48.714;9.584;2024-03-02T14:34:57;2.97;;;1.00;;
82176;SDS011;71758;48.714;9.584;2024-03-02T14:37:22;4.20;;;1.25;;
82176;SDS011;71758;48.714;9.584;2024-03-02T14:39:48;3.45;;;1.23;;